Time;durP1;ratioP1;P1;durP2;ratioP2;P2;SDS_P1;SDS_P2;PMS_P1;PMS_P2;Temp;Humidity;BMP_temperature;BMP_pressure;BME280_temperature;BME280_humidity;BME280_pressure;Samples;Min_cycle;Max_cycle;Signal;HPM_P1;HPM_P2
2023/05/10 00:00:09;;;;;;;11.80;9.88;;;14.10;99.90;;;;;;5072036;28;20162;-49
2023/05/10 00:02:34;;;;;;;11.93;8.90;;;14.10;99.90;;;;;;5071551;28;20644;-48
2023/05/10 00:05:00;;;;;;;12.13;8.95;;;14.00;99.90;;;;;;5071500;28;20297;-48
2023/05/10 00:07:26;;;;;;;11.57;10.27;;;14.00;99.90;;;;;;5071663;28;20219;-48
2023/05/10 00:09:52;;;;;;;15.50;10.50;;;14.00;99.90;;;;;;5071269;28;20571;-48
2023/05/10 00:12:17;;;;;;;12.30;10.27;;;14.00;99.90;;;;;;5071636;28;20190;-48
2023/05/10 00:14:43;;;;;;;10.75;9.57;;;14.00;99.90;;;;;;5071955;28;20174;-48
2023/05/10 00:17:09;;;;;;;13.90;10.68;;;14.00;99.90;;;;;;5071568;28;20158;-49
2023/05/10 00:19:35;;;;;;;12.73;10.23;;;;;;;;;;5071781;28;20180;-49
2023/05/10 00:22:00;;;;;;;10.73;9.38;;;14.10;99.90;;;;;;5071412;28;20205;-49
2023/05/10 00:24:26;;;;;;;14.25;10.60;;;14.10;99.90;;;;;;5071466;28;20216;-49
2023/05/10 00:26:51;;;;;;;12.38;10.30;;;14.00;99.90;;;;;;5071453;28;20176;-48
2023/05/10 00:29:17;;;;;;;13.02;9.43;;;14.00;99.90;;;;;;5071403;28;20158;-48
2023/05/10 00:31:42;;;;;;;11.80;10.35;;;14.10;99.90;;;;;;5070509;28;20198;-49
2023/05/10 00:34:08;;;;;;;12.40;10.50;;;14.00;99.90;;;;;;5071423;28;20627;-49
2023/05/10 00:36:33;;;;;;;13.73;10.93;;;14.00;99.90;;;;;;5071359;28;20224;-48
2023/05/10 00:38:59;;;;;;;15.23;10.82;;;14.00;99.90;;;;;;5071385;28;20168;-48
2023/05/10 00:41:24;;;;;;;12.52;10.70;;;14.00;99.90;;;;;;5071595;28;20173;-48
2023/05/10 00:43:50;;;;;;;12.52;9.93;;;14.00;99.90;;;;;;5071470;28;20205;-48
2023/05/10 00:46:16;;;;;;;13.38;9.93;;;14.00;99.90;;;;;;5071219;28;20634;-49
2023/05/10 00:48:43;;;;;;;12.50;9.82;;;14.00;99.90;;;;;;5071848;28;20310;-48
2023/05/10 00:51:08;;;;;;;14.77;10.60;;;14.00;99.90;;;;;;5071246;28;20166;-48
2023/05/10 00:53:34;;;;;;;12.77;10.43;;;14.00;99.90;;;;;;5073641;28;20227;-48
2023/05/10 00:56:01;;;;;;;13.15;10.02;;;14.00;99.90;;;;;;5075132;28;20165;-49
2023/05/10 00:58:28;;;;;;;14.95;10.35;;;14.00;99.90;;;;;;5075355;28;20189;-48
2023/05/10 01:00:56;;;;;;;14.68;11.20;;;14.00;99.90;;;;;;5075053;28;20162;-49
2023/05/10 01:03:22;;;;;;;13.05;10.82;;;14.10;99.90;;;;;;5075171;28;20213;-55
2023/05/10 01:05:48;;;;;;;12.38;9.82;;;14.00;99.90;;;;;;5075091;28;20221;-49
2023/05/10 01:08:14;;;;;;;11.07;9.52;;;14.00;99.90;;;;;;5075391;28;20189;-50
2023/05/10 01:10:40;;;;;;;11.27;9.35;;;14.10;99.90;;;;;;5075517;28;20201;-49
2023/05/10 01:13:05;;;;;;;10.88;7.75;;;14.00;99.90;;;;;;5074781;28;20173;-49
2023/05/10 01:15:31;;;;;;;8.52;5.70;;;14.00;99.90;;;;;;5074816;28;20170;-49
2023/05/10 01:17:57;;;;;;;6.32;5.38;;;13.90;99.90;;;;;;5075029;28;20166;-49
2023/05/10 01:20:24;;;;;;;8.18;6.10;;;14.00;99.90;;;;;;5074847;28;20228;-49
2023/05/10 01:23:21;;;;;;;6.95;5.25;;;13.90;99.90;;;;;;5074632;28;20205;-49
2023/05/10 01:26:15;;;;;;;4.82;3.90;;;13.90;99.90;;;;;;5074643;28;20223;-49
2023/05/10 01:29:12;;;;;;;4.93;3.70;;;13.90;99.90;;;;;;5075177;28;20177;-49
2023/05/10 01:32:15;;;;;;;6.30;5.07;;;14.00;99.90;;;;;;5074230;28;20194;-49
2023/05/10 01:34:48;;;;;;;8.20;5.85;;;14.10;99.90;;;;;;5074912;28;20165;-49
2023/05/10 01:37:25;;;;;;;9.40;5.03;;;14.10;99.90;;;;;;5074649;28;20185;-49
2023/05/10 01:40:00;;;;;;;6.60;4.93;;;14.10;99.90;;;;;;5074331;28;20232;-48
2023/05/10 01:42:40;;;;;;;8.38;4.63;;;14.10;99.90;;;;;;5074211;28;20193;-48
2023/05/10 01:45:11;;;;;;;5.95;4.75;;;14.10;99.90;;;;;;5074537;28;20691;-49
2023/05/10 01:47:43;;;;;;;8.38;5.35;;;14.10;99.90;;;;;;5074122;28;20219;-49
2023/05/10 01:50:15;;;;;;;11.38;5.43;;;14.10;99.90;;;;;;5074497;28;20170;-49
2023/05/10 01:52:54;;;;;;;8.48;5.18;;;14.10;99.90;;;;;;5074589;28;20218;-49
2023/05/10 01:55:22;;;;;;;7.57;6.30;;;14.20;99.90;;;;;;5072778;28;20173;-48
2023/05/10 01:57:56;;;;;;;9.10;6.53;;;14.20;99.90;;;;;;5073966;28;20532;-48
2023/05/10 02:00:23;;;;;;;7.80;6.43;;;14.20;99.90;;;;;;5073968;28;20181;-49
2023/05/10 02:02:50;;;;;;;8.90;6.15;;;14.20;99.90;;;;;;5073872;28;20603;-49
2023/05/10 02:05:18;;;;;;;9.57;7.00;;;14.30;99.90;;;;;;5072554;28;20714;-49
2023/05/10 02:07:44;;;;;;;11.73;6.25;;;;;;;;;;5073837;28;20231;-48
2023/05/10 02:10:11;;;;;;;11.98;6.90;;;14.30;99.90;;;;;;5074310;28;20173;-48
2023/05/10 02:12:40;;;;;;;8.10;6.03;;;14.30;99.90;;;;;;5073757;28;20165;-49
2023/05/10 02:15:07;;;;;;;9.77;5.53;;;14.30;99.90;;;;;;5073745;28;20621;-49
2023/05/10 02:17:35;;;;;;;8.30;6.32;;;14.40;99.90;;;;;;5089354;28;21040;-49
2023/05/10 02:20:03;;;;;;;7.35;6.00;;;14.30;99.90;;;;;;5073861;28;20170;-49
2023/05/10 02:22:29;;;;;;;9.40;5.80;;;14.20;99.90;;;;;;5073783;28;20304;-48
2023/05/10 02:25:00;;;;;;;10.00;6.75;;;14.20;99.90;;;;;;5073532;28;20254;-48
2023/05/10 02:27:27;;;;;;;8.52;5.90;;;14.20;99.90;;;;;;5073382;28;20174;-48
2023/05/10 02:29:54;;;;;;;8.88;6.65;;;14.20;99.90;;;;;;5073418;28;20166;-48
2023/05/10 02:32:21;;;;;;;6.80;6.05;;;14.40;99.90;;;;;;5073609;28;20173;-48
2023/05/10 02:34:51;;;;;;;10.05;6.65;;;14.30;99.90;;;;;;5073360;28;20635;-48
2023/05/10 02:37:20;;;;;;;7.65;6.82;;;14.40;99.90;;;;;;5073443;28;20510;-48
2023/05/10 02:39:54;;;;;;;8.27;6.78;;;14.40;99.90;;;;;;5073228;28;20540;-48
2023/05/10 02:42:25;;;;;;;8.75;7.28;;;14.40;99.90;;;;;;5073132;28;20565;-49
2023/05/10 02:44:54;;;;;;;12.75;7.93;;;14.40;99.90;;;;;;5073153;28;20166;-49
2023/05/10 02:47:20;;;;;;;9.63;7.13;;;14.40;99.90;;;;;;5073286;28;20170;-49
2023/05/10 02:49:47;;;;;;;22.63;8.75;;;14.40;99.90;;;;;;5072985;28;20631;-49
2023/05/10 02:52:21;;;;;;;11.27;7.80;;;14.40;99.90;;;;;;5073373;28;20251;-48
2023/05/10 02:54:50;;;;;;;14.20;8.68;;;14.40;99.90;;;;;;5072990;28;20532;-49
2023/05/10 02:57:20;;;;;;;13.23;8.68;;;14.40;99.90;;;;;;5073036;28;20623;-48
2023/05/10 02:59:45;;;;;;;14.90;9.25;;;14.30;99.90;;;;;;5072776;28;20212;-49
2023/05/10 03:02:12;;;;;;;15.55;10.35;;;14.30;99.90;;;;;;5073053;28;20202;-49
2023/05/10 03:04:38;;;;;;;13.32;10.00;;;14.20;99.90;;;;;;5072995;28;20200;-49
2023/05/10 03:07:04;;;;;;;13.82;9.98;;;14.20;99.90;;;;;;5072839;28;20197;-49
2023/05/10 03:09:30;;;;;;;13.45;10.63;;;14.10;99.90;;;;;;5072874;28;20166;-48
2023/05/10 03:12:15;;;;;;;12.80;10.32;;;14.20;99.90;;;;;;5072565;28;20170;-49
2023/05/10 03:15:17;;;;;;;14.63;10.10;;;14.20;99.90;;;;;;5086642;28;20673;-49
2023/05/10 03:17:55;;;;;;;14.25;10.35;;;14.10;99.90;;;;;;5093046;28;20626;-49
2023/05/10 03:20:29;;;;;;;12.05;9.93;;;14.10;99.90;;;;;;5092652;28;20165;-49
2023/05/10 03:23:09;;;;;;;19.23;11.10;;;14.10;99.90;;;;;;5092562;28;20205;-49
2023/05/10 03:25:35;;;;;;;13.60;9.57;;;14.00;99.90;;;;;;5092575;28;20173;-48
2023/05/10 03:28:03;;;;;;;12.35;9.65;;;14.00;99.90;;;;;;5092616;28;20162;-48
2023/05/10 03:30:29;;;;;;;13.02;8.73;;;14.00;99.90;;;;;;5092508;28;20169;-48
2023/05/10 03:32:55;;;;;;;13.90;9.85;;;14.00;99.90;;;;;;5092715;28;20170;-49
2023/05/10 03:35:20;;;;;;;14.25;10.68;;;14.00;99.90;;;;;;5092369;28;20671;-48
2023/05/10 03:37:47;;;;;;;16.75;10.13;;;13.90;99.90;;;;;;5092409;28;20170;-48
2023/05/10 03:40:13;;;;;;;17.50;11.75;;;14.00;99.90;;;;;;5092897;28;20169;-48
2023/05/10 03:42:39;;;;;;;18.17;11.25;;;14.00;99.90;;;;;;5092489;28;20729;-48
2023/05/10 03:45:05;;;;;;;17.02;11.57;;;13.90;99.90;;;;;;5092208;28;20212;-48
2023/05/10 03:47:31;;;;;;;16.77;11.80;;;13.90;99.90;;;;;;5092205;28;20178;-48
2023/05/10 03:49:56;;;;;;;20.15;11.93;;;13.90;99.90;;;;;;5092043;28;20610;-47
2023/05/10 03:52:22;;;;;;;16.00;10.25;;;13.80;99.90;;;;;;5092106;28;20177;-48
2023/05/10 03:54:47;;;;;;;16.60;11.18;;;13.80;99.90;;;;;;5092150;28;20197;-48
2023/05/10 03:57:13;;;;;;;14.50;11.50;;;13.90;99.90;;;;;;5092045;28;20161;-48
2023/05/10 03:59:39;;;;;;;21.00;11.70;;;13.80;99.90;;;;;;5092488;28;20173;-48
2023/05/10 04:02:04;;;;;;;15.40;11.43;;;13.80;99.90;;;;;;5091864;28;20269;-48
2023/05/10 04:04:31;;;;;;;15.35;11.23;;;13.80;99.90;;;;;;5091833;28;20172;-48
2023/05/10 04:06:56;;;;;;;17.90;11.55;;;13.80;99.90;;;;;;5091885;28;20172;-48
2023/05/10 04:09:22;;;;;;;18.58;11.80;;;13.90;99.90;;;;;;5091959;28;20173;-48
2023/05/10 04:11:47;;;;;;;14.50;11.30;;;13.90;99.90;;;;;;5091826;28;20626;-48
2023/05/10 04:14:13;;;;;;;17.75;12.13;;;;;;;;;;5091725;28;20599;-48
2023/05/10 04:16:39;;;;;;;14.40;11.15;;;13.80;99.90;;;;;;5092431;28;20173;-48
2023/05/10 04:19:04;;;;;;;18.45;12.15;;;13.90;99.90;;;;;;5091753;28;20176;-48
2023/05/10 04:21:30;;;;;;;17.35;12.52;;;13.90;99.90;;;;;;5092016;28;20175;-48
2023/05/10 04:23:55;;;;;;;16.75;11.13;;;13.90;99.90;;;;;;5091580;28;20589;-48
2023/05/10 04:26:21;;;;;;;14.43;10.88;;;13.80;99.90;;;;;;5091977;28;20168;-48
2023/05/10 04:28:47;;;;;;;15.20;11.48;;;13.80;99.90;;;;;;5091199;28;20173;-48
2023/05/10 04:31:13;;;;;;;16.20;11.45;;;;;;;;;;5091640;28;20162;-48
2023/05/10 04:33:39;;;;;;;18.73;11.48;;;13.80;99.90;;;;;;5092022;28;20532;-48
2023/05/10 04:36:05;;;;;;;15.35;11.98;;;13.90;99.90;;;;;;5091722;28;20172;-48
2023/05/10 04:38:30;;;;;;;16.02;10.73;;;13.90;99.90;;;;;;5091500;28;20165;-48
2023/05/10 04:41:10;;;;;;;20.05;11.20;;;13.90;99.90;;;;;;5091762;28;20173;-49
2023/05/10 04:43:36;;;;;;;19.52;10.88;;;13.90;99.90;;;;;;5091627;28;20212;-49
2023/05/10 04:46:03;;;;;;;16.33;10.57;;;13.90;99.90;;;;;;5091787;28;20166;-47
2023/05/10 04:48:29;;;;;;;13.00;9.82;;;14.00;99.90;;;;;;5091878;28;20165;-49
2023/05/10 04:50:55;;;;;;;15.73;10.10;;;13.90;99.90;;;;;;5090222;28;20219;-50
2023/05/10 04:53:21;;;;;;;13.95;10.05;;;;;;;;;;5091335;28;20169;-49
2023/05/10 04:55:47;;;;;;;13.00;9.70;;;13.90;99.90;;;;;;5091549;28;20170;-49
2023/05/10 04:58:13;;;;;;;18.98;9.45;;;;;;;;;;5091700;28;20184;-49
2023/05/10 05:00:38;;;;;;;14.77;9.88;;;13.90;99.90;;;;;;5091772;28;20169;-48
2023/05/10 05:03:05;;;;;;;17.50;9.70;;;13.90;99.90;;;;;;5091154;28;20205;-48
2023/05/10 05:05:30;;;;;;;15.85;9.18;;;13.90;99.90;;;;;;5091365;28;20221;-48
2023/05/10 05:07:56;;;;;;;16.52;9.85;;;13.90;99.90;;;;;;5091134;28;20204;-48
2023/05/10 05:10:22;;;;;;;14.68;9.18;;;13.90;99.90;;;;;;5091519;28;20189;-48
2023/05/10 05:12:47;;;;;;;17.05;9.63;;;13.80;99.90;;;;;;5091102;28;20535;-48
2023/05/10 05:15:13;;;;;;;19.42;10.30;;;13.80;99.90;;;;;;5091103;28;20535;-48
2023/05/10 05:17:38;;;;;;;16.92;9.77;;;13.80;99.90;;;;;;5091842;28;20541;-48
2023/05/10 05:20:05;;;;;;;15.93;10.18;;;13.90;99.90;;;;;;5091133;28;20508;-48
2023/05/10 05:22:30;;;;;;;21.00;10.32;;;13.90;99.90;;;;;;5091104;28;20197;-48
2023/05/10 05:24:58;;;;;;;17.50;10.52;;;13.90;99.90;;;;;;5091073;28;20176;-48
2023/05/10 05:27:25;;;;;;;18.02;9.98;;;13.90;99.90;;;;;;5091293;28;20183;-48
2023/05/10 05:29:56;;;;;;;24.60;10.68;;;13.90;99.90;;;;;;5091308;28;20166;-48
2023/05/10 05:32:22;;;;;;;17.90;10.35;;;14.00;99.90;;;;;;5090991;28;20641;-48
2023/05/10 05:34:47;;;;;;;17.70;10.60;;;14.00;99.90;;;;;;5091166;28;20516;-47
2023/05/10 05:37:19;;;;;;;22.83;11.48;;;14.00;99.90;;;;;;5090776;28;20172;-48
2023/05/10 05:39:45;;;;;;;21.75;12.23;;;14.00;99.90;;;;;;5093138;28;20256;-48
2023/05/10 05:42:11;;;;;;;21.17;11.10;;;13.90;99.90;;;;;;5094909;28;20272;-48
2023/05/10 05:44:37;;;;;;;17.95;10.07;;;13.90;99.90;;;;;;5094492;28;20650;-48
2023/05/10 05:47:03;;;;;;;20.63;10.50;;;13.90;99.90;;;;;;5094442;28;20244;-48
2023/05/10 05:49:29;;;;;;;20.15;10.30;;;13.90;99.90;;;;;;5094452;28;20161;-48
2023/05/10 05:51:59;;;;;;;17.17;10.82;;;13.90;99.90;;;;;;5094748;28;20218;-49
2023/05/10 05:54:24;;;;;;;17.35;11.07;;;14.00;99.90;;;;;;5094554;28;20176;-48
2023/05/10 05:56:50;;;;;;;21.50;11.45;;;;;;;;;;5094382;28;20161;-48
2023/05/10 05:59:16;;;;;;;19.40;10.25;;;13.80;99.90;;;;;;5094210;28;20169;-48
2023/05/10 06:01:42;;;;;;;19.25;10.85;;;;;;;;;;5094803;28;20217;-48
2023/05/10 06:04:08;;;;;;;18.50;11.18;;;13.90;99.90;;;;;;5093193;28;20213;-47
2023/05/10 06:06:33;;;;;;;17.25;11.43;;;13.90;99.90;;;;;;5093602;28;20262;-48
2023/05/10 06:08:59;;;;;;;20.77;11.98;;;13.90;99.90;;;;;;5094113;28;20161;-47
2023/05/10 06:11:25;;;;;;;20.40;12.30;;;13.80;99.90;;;;;;5094067;28;20162;-47
2023/05/10 06:13:51;;;;;;;23.63;11.93;;;13.90;99.90;;;;;;5094076;28;20256;-47
2023/05/10 06:16:17;;;;;;;22.13;12.02;;;13.80;99.90;;;;;;5093820;28;20277;-47
2023/05/10 06:18:43;;;;;;;19.17;11.90;;;13.90;99.90;;;;;;5094123;28;20181;-47
2023/05/10 06:21:09;;;;;;;21.98;11.88;;;;;;;;;;5094238;28;20188;-48
2023/05/10 06:23:35;;;;;;;23.35;12.40;;;13.90;99.90;;;;;;5093963;28;20205;-47
2023/05/10 06:26:01;;;;;;;18.95;12.05;;;14.00;99.90;;;;;;5093659;28;20654;-48
2023/05/10 06:28:26;;;;;;;19.73;11.32;;;14.10;99.90;;;;;;5093678;28;20180;-47
2023/05/10 06:30:52;;;;;;;18.02;12.45;;;14.10;99.90;;;;;;5093907;28;20165;-47
2023/05/10 06:33:17;;;;;;;21.45;11.93;;;14.00;99.90;;;;;;5093496;28;20196;-47
2023/05/10 06:35:43;;;;;;;24.00;12.02;;;13.90;99.90;;;;;;5093775;28;20173;-47
2023/05/10 06:38:09;;;;;;;22.52;13.25;;;;;;;;;;5093898;28;20188;-47
2023/05/10 06:40:35;;;;;;;23.42;12.63;;;14.00;99.90;;;;;;5093467;28;20534;-47
2023/05/10 06:43:01;;;;;;;22.17;13.13;;;14.10;99.90;;;;;;5093189;28;20205;-47
2023/05/10 06:45:26;;;;;;;19.75;11.52;;;14.10;99.90;;;;;;5093394;28;20162;-47
2023/05/10 06:47:52;;;;;;;17.88;13.13;;;14.20;99.90;;;;;;5093250;28;20634;-47
2023/05/10 06:50:18;;;;;;;21.17;13.32;;;14.10;99.90;;;;;;5092686;28;20157;-47
2023/05/10 06:52:43;;;;;;;22.55;13.60;;;14.20;99.90;;;;;;5093195;28;20267;-47
2023/05/10 06:55:09;;;;;;;20.80;13.60;;;14.30;99.90;;;;;;5093730;28;20215;-47
2023/05/10 06:57:35;;;;;;;19.63;13.15;;;14.30;99.90;;;;;;5092902;28;20173;-47
2023/05/10 07:00:03;;;;;;;23.45;14.25;;;14.30;99.90;;;;;;5093360;28;20169;-47
2023/05/10 07:02:29;;;;;;;22.48;13.80;;;14.30;99.90;;;;;;5092562;28;20193;-47
2023/05/10 07:04:54;;;;;;;23.38;14.30;;;14.40;99.90;;;;;;5092875;28;20227;-47
2023/05/10 07:07:20;;;;;;;21.05;13.55;;;14.40;99.90;;;;;;5092859;28;20592;-47
2023/05/10 07:09:46;;;;;;;21.38;14.65;;;14.30;99.90;;;;;;5093228;28;20180;-47
2023/05/10 07:12:11;;;;;;;20.27;14.35;;;14.30;99.90;;;;;;5093241;28;20614;-47
2023/05/10 07:14:38;;;;;;;20.38;13.60;;;14.20;99.90;;;;;;5093432;28;20292;-47
2023/05/10 07:17:04;;;;;;;24.55;13.63;;;;;;;;;;5092768;28;20204;-47
2023/05/10 07:19:29;;;;;;;25.83;13.13;;;14.30;99.90;;;;;;5092872;28;20593;-47
2023/05/10 07:21:55;;;;;;;21.75;13.20;;;14.30;99.90;;;;;;5092600;28;20196;-47
2023/05/10 07:24:21;;;;;;;18.48;12.82;;;;;;;;;;5092528;28;20197;-47
2023/05/10 07:26:47;;;;;;;21.80;13.43;;;;;;;;;;5092425;28;20580;-47
2023/05/10 07:29:12;;;;;;;19.15;13.25;;;14.40;99.90;;;;;;5092541;28;20165;-47
2023/05/10 07:31:38;;;;;;;16.60;12.38;;;14.40;99.90;;;;;;5093107;28;20648;-47
2023/05/10 07:34:04;;;;;;;21.85;12.27;;;14.50;99.90;;;;;;5092426;28;20236;-47
2023/05/10 07:36:30;;;;;;;19.27;12.23;;;14.60;99.90;;;;;;5092613;28;20223;-47
2023/05/10 07:38:57;;;;;;;16.60;10.88;;;14.70;99.90;;;;;;5092493;28;20243;-46
2023/05/10 07:41:22;;;;;;;16.50;11.40;;;14.60;99.90;;;;;;5092148;28;20652;-47
2023/05/10 07:43:48;;;;;;;18.20;11.68;;;14.70;99.90;;;;;;5091941;28;20300;-47
2023/05/10 07:46:14;;;;;;;19.02;10.40;;;14.70;99.90;;;;;;5091734;28;20200;-47
2023/05/10 07:48:39;;;;;;;14.00;10.85;;;14.80;99.90;;;;;;5092513;28;20189;-47
2023/05/10 07:51:06;;;;;;;18.25;11.57;;;14.80;99.90;;;;;;5092052;28;20537;-47
2023/05/10 07:53:33;;;;;;;20.10;11.95;;;14.80;99.90;;;;;;5091986;28;20165;-47
2023/05/10 07:55:58;;;;;;;16.30;11.80;;;14.90;99.90;;;;;;5091984;28;20187;-47
2023/05/10 07:58:25;;;;;;;15.70;11.38;;;14.80;99.90;;;;;;5092229;28;20191;-47
2023/05/10 08:00:50;;;;;;;19.00;12.43;;;14.80;99.90;;;;;;5091947;28;20573;-47
2023/05/10 08:03:16;;;;;;;20.75;12.35;;;;;;;;;;5089263;28;20209;-47
2023/05/10 08:05:42;;;;;;;19.77;12.00;;;15.10;99.90;;;;;;5089739;28;20209;-47
2023/05/10 08:08:08;;;;;;;21.92;14.75;;;15.10;99.90;;;;;;5090487;28;20173;-47
2023/05/10 08:10:34;;;;;;;19.92;14.38;;;;;;;;;;5089811;28;20231;-47
2023/05/10 08:12:59;;;;;;;24.10;16.70;;;15.50;99.90;;;;;;5089776;28;20256;-47
2023/05/10 08:15:25;;;;;;;28.52;17.83;;;15.50;99.90;;;;;;5089739;28;20158;-47
2023/05/10 08:17:54;;;;;;;27.38;18.75;;;15.30;99.90;;;;;;5090726;28;20177;-47
2023/05/10 08:20:20;;;;;;;35.00;20.27;;;15.30;99.90;;;;;;5091943;28;20166;-47
2023/05/10 08:22:46;;;;;;;31.13;22.13;;;15.40;99.90;;;;;;5091800;28;20209;-47
2023/05/10 08:25:12;;;;;;;31.25;19.15;;;;;;;;;;5091645;28;20157;-47
2023/05/10 08:27:37;;;;;;;31.35;18.40;;;15.80;99.90;;;;;;5091955;28;20226;-47
2023/05/10 08:30:03;;;;;;;27.58;17.65;;;15.80;99.90;;;;;;5091552;28;20174;-47
2023/05/10 08:32:29;;;;;;;30.33;18.13;;;;;;;;;;5091491;28;20173;-47
2023/05/10 08:34:55;;;;;;;25.98;17.08;;;15.70;99.90;;;;;;5091562;28;20278;-47
2023/05/10 08:37:22;;;;;;;26.50;17.55;;;15.50;99.90;;;;;;5091433;28;20665;-47
2023/05/10 08:39:48;;;;;;;30.20;18.02;;;15.40;99.90;;;;;;5091462;28;20172;-47
2023/05/10 08:42:18;;;;;;;30.83;18.92;;;15.50;99.90;;;;;;5091441;28;20173;-47
2023/05/10 08:44:47;;;;;;;32.95;19.40;;;15.40;99.90;;;;;;5091560;28;20634;-47
2023/05/10 08:47:16;;;;;;;26.92;17.33;;;15.40;99.90;;;;;;5091619;28;20189;-47
2023/05/10 08:49:42;;;;;;;28.83;18.33;;;;;;;;;;5091431;28;20608;-47
2023/05/10 08:52:10;;;;;;;26.95;17.25;;;15.30;99.90;;;;;;5091729;28;20173;-47
2023/05/10 08:54:36;;;;;;;26.15;15.52;;;15.40;99.90;;;;;;5091653;28;20226;-47
2023/05/10 08:57:02;;;;;;;22.40;15.52;;;15.20;99.90;;;;;;5091384;28;20603;-47
2023/05/10 08:59:28;;;;;;;21.48;14.15;;;15.10;99.90;;;;;;5091723;28;20199;-48
2023/05/10 09:01:58;;;;;;;21.85;13.70;;;15.10;99.90;;;;;;5091780;28;20630;-47
2023/05/10 09:04:24;;;;;;;18.85;13.45;;;15.20;99.90;;;;;;5091392;28;20173;-47
2023/05/10 09:06:50;;;;;;;18.40;12.77;;;15.20;99.90;;;;;;5091118;28;20693;-47
2023/05/10 09:09:17;;;;;;;21.35;15.27;;;15.30;99.90;;;;;;5091254;28;20176;-47
2023/05/10 09:11:43;;;;;;;18.40;11.85;;;15.40;99.90;;;;;;5091280;28;20161;-47
2023/05/10 09:14:09;;;;;;;16.05;11.48;;;15.50;99.90;;;;;;5093066;28;20153;-47
2023/05/10 09:16:35;;;;;;;17.65;12.77;;;15.60;99.90;;;;;;5095063;28;20173;-47
2023/05/10 09:19:00;;;;;;;18.08;12.32;;;15.70;99.90;;;;;;5093739;28;20180;-47
2023/05/10 09:21:26;;;;;;;17.65;11.85;;;15.90;99.90;;;;;;5094987;28;20173;-47
2023/05/10 09:23:54;;;;;;;18.95;12.10;;;15.80;99.90;;;;;;5095071;28;20566;-47
2023/05/10 09:26:23;;;;;;;17.95;12.38;;;16.00;99.90;;;;;;5095011;28;20162;-47
2023/05/10 09:28:56;;;;;;;16.23;12.88;;;15.90;99.90;;;;;;5094840;28;20173;-47
2023/05/10 09:31:23;;;;;;;21.08;13.63;;;;;;;;;;5095046;28;20165;-47
2023/05/10 09:33:50;;;;;;;18.92;12.70;;;16.00;99.90;;;;;;5095023;28;20174;-47
2023/05/10 09:36:16;;;;;;;21.30;13.45;;;16.20;99.90;;;;;;5094878;28;20169;-47
2023/05/10 09:38:52;;;;;;;16.38;12.48;;;16.30;99.90;;;;;;5094596;28;20172;-46
2023/05/10 09:41:24;;;;;;;19.75;12.70;;;16.40;99.90;;;;;;5094483;28;20649;-47
2023/05/10 09:43:55;;;;;;;17.48;12.57;;;16.50;99.90;;;;;;5094414;28;20599;-47
2023/05/10 09:46:22;;;;;;;21.20;13.68;;;;;;;;;;5094511;28;20319;-46
2023/05/10 09:48:48;;;;;;;18.25;13.25;;;16.40;99.90;;;;;;5094670;28;20223;-47
2023/05/10 09:51:24;;;;;;;15.32;12.00;;;16.50;99.90;;;;;;5094456;28;20559;-46
2023/05/10 09:54:09;;;;;;;15.68;11.20;;;16.50;99.90;;;;;;5094420;28;20207;-47
2023/05/10 09:56:36;;;;;;;15.82;12.38;;;16.70;99.90;;;;;;5094527;28;20174;-46
2023/05/10 09:59:03;;;;;;;15.70;12.07;;;16.80;99.90;;;;;;5094207;28;20580;-47
2023/05/10 10:01:29;;;;;;;14.77;10.75;;;;;;;;;;5094455;28;20244;-47
2023/05/10 10:03:54;;;;;;;14.48;10.77;;;16.60;99.90;;;;;;5094078;28;20200;-47
2023/05/10 10:06:20;;;;;;;14.93;10.73;;;16.70;99.90;;;;;;5093820;28;20205;-47
2023/05/10 10:08:46;;;;;;;14.80;10.43;;;16.60;99.90;;;;;;5094091;28;20211;-47
2023/05/10 10:11:11;;;;;;;16.70;10.38;;;16.70;99.90;;;;;;5094223;28;20172;-46
2023/05/10 10:13:37;;;;;;;14.88;10.10;;;16.70;99.90;;;;;;5094317;28;20176;-46
2023/05/10 10:16:03;;;;;;;14.95;10.82;;;17.00;99.90;;;;;;5093916;28;20165;-47
2023/05/10 10:18:30;;;;;;;12.88;9.82;;;17.30;99.90;;;;;;5093895;28;20557;-47
2023/05/10 10:20:56;;;;;;;11.85;7.97;;;17.00;99.90;;;;;;5093752;28;20244;-47
2023/05/10 10:23:22;;;;;;;12.70;9.07;;;17.00;99.90;;;;;;5093974;28;20288;-46
2023/05/10 10:25:48;;;;;;;14.65;9.77;;;17.20;99.90;;;;;;5092563;28;20173;-47
2023/05/10 10:28:26;;;;;;;12.77;9.27;;;17.50;99.90;;;;;;5093647;28;20169;-46
2023/05/10 10:30:55;;;;;;;10.90;8.50;;;17.10;99.90;;;;;;5092306;28;20540;-47
2023/05/10 10:33:56;;;;;;;9.40;7.70;;;17.20;99.90;;;;;;5093574;28;20699;-47
2023/05/10 10:36:22;;;;;;;10.68;7.65;;;17.60;99.90;;;;;;5093569;28;20542;-46
2023/05/10 10:38:48;;;;;;;11.48;7.50;;;17.50;99.90;;;;;;5093557;28;20162;-47
2023/05/10 10:41:30;;;;;;;9.63;7.15;;;17.40;99.90;;;;;;5093521;28;20196;-47
2023/05/10 10:44:24;;;;;;;8.77;6.65;;;17.20;99.90;;;;;;5093564;28;20605;-47
2023/05/10 10:47:28;;;;;;;7.80;6.10;;;17.00;99.90;;;;;;5093618;28;20196;-48
2023/05/10 10:50:00;;;;;;;6.65;5.93;;;17.10;99.90;;;;;;5091966;28;20173;-47
2023/05/10 10:52:33;;;;;;;7.32;5.78;;;17.10;99.90;;;;;;5093140;28;20204;-47
2023/05/10 10:55:00;;;;;;;6.70;5.72;;;17.00;99.90;;;;;;5093439;28;20176;-47
2023/05/10 10:57:27;;;;;;;7.03;6.22;;;17.10;99.90;;;;;;5093070;28;20157;-47
2023/05/10 11:00:18;;;;;;;7.28;5.75;;;16.90;99.90;;;;;;5091677;28;20176;-47
2023/05/10 11:02:53;;;;;;;7.80;5.90;;;17.10;99.90;;;;;;5092873;28;20719;-47
2023/05/10 11:05:28;;;;;;;6.78;5.70;;;17.20;99.90;;;;;;5092937;28;20303;-47
2023/05/10 11:07:59;;;;;;;6.95;5.68;;;17.20;99.90;;;;;;5092843;28;20162;-46
2023/05/10 11:10:26;;;;;;;7.28;5.40;;;17.40;99.90;;;;;;5092571;28;20165;-47
2023/05/10 11:13:00;;;;;;;6.68;5.57;;;17.40;99.90;;;;;;5092254;28;20182;-50
2023/05/10 11:15:34;;;;;;;5.95;5.00;;;17.40;99.90;;;;;;5091305;28;20160;-47
2023/05/10 11:18:15;;;;;;;6.97;4.28;;;17.20;99.90;;;;;;5092519;28;20177;-47
2023/05/10 11:20:41;;;;;;;5.75;4.32;;;;;;;;;;5092369;28;20161;-46
2023/05/10 11:23:17;;;;;;;5.25;4.65;;;17.00;99.90;;;;;;5092711;28;20338;-47
2023/05/10 11:25:44;;;;;;;5.75;5.20;;;;;;;;;;5092204;28;20273;-46
2023/05/10 11:28:10;;;;;;;6.85;5.32;;;;;;;;;;5092796;28;20162;-46
2023/05/10 11:30:40;;;;;;;7.55;4.43;;;17.10;99.90;;;;;;5092724;28;20177;-47
2023/05/10 11:33:08;;;;;;;4.57;4.03;;;17.40;99.90;;;;;;5092719;28;20192;-46
2023/05/10 11:35:40;;;;;;;3.63;3.33;;;17.40;99.90;;;;;;5092248;28;20635;-47
2023/05/10 11:38:12;;;;;;;3.60;3.30;;;17.80;99.90;;;;;;5092301;28;20184;-47
2023/05/10 11:40:39;;;;;;;3.78;3.17;;;17.80;99.90;;;;;;5092522;28;20326;-47
2023/05/10 11:43:05;;;;;;;4.93;3.40;;;17.70;99.90;;;;;;5091999;28;20204;-46
2023/05/10 11:45:35;;;;;;;3.38;3.05;;;17.70;99.90;;;;;;5092010;28;20176;-46
2023/05/10 11:48:02;;;;;;;3.63;3.03;;;18.00;99.90;;;;;;5092001;28;20172;-47
2023/05/10 11:50:28;;;;;;;5.50;3.10;;;18.10;99.90;;;;;;5091925;28;20223;-46
2023/05/10 11:52:56;;;;;;;3.83;3.50;;;18.40;99.90;;;;;;5091700;28;20222;-46
2023/05/10 11:55:24;;;;;;;3.30;2.58;;;18.70;99.90;;;;;;5091654;28;20157;-46
2023/05/10 11:58:01;;;;;;;4.35;3.25;;;18.80;99.90;;;;;;5091770;28;20237;-47
2023/05/10 12:00:26;;;;;;;3.67;3.17;;;;;;;;;;5091810;28;20171;-47
2023/05/10 12:02:52;;;;;;;4.03;3.65;;;19.10;99.90;;;;;;5091588;28;20209;-47
2023/05/10 12:05:18;;;;;;;5.05;3.70;;;19.30;99.90;;;;;;5091093;28;20322;-47
2023/05/10 12:07:44;;;;;;;4.07;3.65;;;;;;;;;;5091796;28;20234;-47
2023/05/10 12:10:16;;;;;;;4.75;3.85;;;21.30;99.90;;;;;;5092419;28;20196;-47
2023/05/10 12:12:44;;;;;;;3.65;3.00;;;19.60;99.90;;;;;;5091778;28;20573;-47
2023/05/10 12:15:17;;;;;;;3.63;3.28;;;19.80;99.90;;;;;;5091987;28;20196;-47
2023/05/10 12:17:44;;;;;;;4.25;3.85;;;19.60;99.90;;;;;;5091629;28;20631;-47
2023/05/10 12:20:24;;;;;;;3.40;2.92;;;19.30;99.90;;;;;;5091716;28;20173;-47
2023/05/10 12:22:52;;;;;;;3.78;3.35;;;19.40;99.90;;;;;;5091678;28;20551;-47
2023/05/10 12:25:19;;;;;;;3.78;3.45;;;19.20;99.90;;;;;;5091616;28;20173;-47
2023/05/10 12:27:52;;;;;;;3.80;3.45;;;18.90;99.90;;;;;;5091871;28;20173;-47
2023/05/10 12:30:29;;;;;;;4.80;4.20;;;18.80;99.90;;;;;;5091871;28;20184;-47
2023/05/10 12:33:18;;;;;;;4.38;3.97;;;18.60;99.90;;;;;;5091569;28;20165;-47
2023/05/10 12:35:49;;;;;;;4.28;3.88;;;18.50;99.90;;;;;;5091881;28;20181;-47
2023/05/10 12:38:30;;;;;;;3.80;3.40;;;18.60;99.90;;;;;;5091444;28;20626;-47
2023/05/10 12:40:57;;;;;;;4.65;4.00;;;18.30;99.90;;;;;;5091743;28;20208;-47
2023/05/10 12:43:23;;;;;;;3.70;3.40;;;18.60;99.90;;;;;;5091706;28;20205;-47
2023/05/10 12:45:48;;;;;;;4.65;4.22;;;18.60;99.90;;;;;;5091527;28;20652;-47
2023/05/10 12:48:15;;;;;;;4.28;3.80;;;18.70;99.90;;;;;;5091527;28;20166;-47